SWA2131 KDSM-KMDW
Flight info
| Callsign | SWA2131 |
|---|---|
| Flight time | 0h 49m |
| Altitude | 35000 |
| Route | KAMBL ENDEE8 |
| Aircraft | B737/M-SDE2E3FGHIRWXY/LB1 |
Departure
| Time | 2026-04-21 01:40 |
|---|---|
| Airport | Des Moines International Airport (KDSM) |
Arrival
| Time | 2026-04-21 02:29 |
|---|---|
| Airport | Chicago Midway International Airport (KMDW) |
| Time | Latitude | Longitude | Altitude | Speed | Heading |
|---|---|---|---|---|---|
| 2026-04-21 01:14 | 41.53161 | -93.65012 | 966 ft | 0 kts | 359° |
| 2026-04-21 01:28 | 41.53159 | -93.65012 | 966 ft | 2 kts | 359° |
| 2026-04-21 01:28 | 41.53133 | -93.65007 | 963 ft | 4 kts | 336° |
| 2026-04-21 01:28 | 41.53115 | -93.64988 | 962 ft | 4 kts | 285° |
| 2026-04-21 01:29 | 41.53117 | -93.64962 | 965 ft | 1 kts | 230° |
| 2026-04-21 01:29 | 41.53120 | -93.64957 | 962 ft | 0 kts | 230° |
| 2026-04-21 01:32 | 41.53103 | -93.64985 | 964 ft | 7 kts | 230° |
| 2026-04-21 01:32 | 41.53086 | -93.65041 | 965 ft | 7 kts | 272° |
| 2026-04-21 01:33 | 41.53113 | -93.65093 | 966 ft | 7 kts | 309° |
| 2026-04-21 01:33 | 41.53142 | -93.65141 | 963 ft | 7 kts | 309° |
| 2026-04-21 01:33 | 41.53172 | -93.65190 | 964 ft | 7 kts | 311° |
| 2026-04-21 01:33 | 41.53209 | -93.65243 | 966 ft | 8 kts | 312° |
| 2026-04-21 01:34 | 41.53250 | -93.65301 | 966 ft | 9 kts | 314° |
| 2026-04-21 01:34 | 41.53289 | -93.65358 | 967 ft | 8 kts | 311° |
| 2026-04-21 01:34 | 41.53327 | -93.65416 | 966 ft | 10 kts | 311° |
| 2026-04-21 01:34 | 41.53389 | -93.65514 | 967 ft | 16 kts | 310° |
| 2026-04-21 01:35 | 41.53461 | -93.65637 | 967 ft | 17 kts | 306° |
| 2026-04-21 01:35 | 41.53530 | -93.65756 | 966 ft | 16 kts | 320° |
| 2026-04-21 01:35 | 41.53615 | -93.65854 | 967 ft | 18 kts | 315° |
| 2026-04-21 01:35 | 41.53712 | -93.65993 | 965 ft | 21 kts | 312° |
| 2026-04-21 01:36 | 41.53808 | -93.66138 | 966 ft | 21 kts | 312° |
| 2026-04-21 01:36 | 41.53904 | -93.66276 | 965 ft | 20 kts | 313° |
| 2026-04-21 01:36 | 41.53997 | -93.66410 | 967 ft | 19 kts | 312° |
| 2026-04-21 01:36 | 41.54090 | -93.66544 | 966 ft | 23 kts | 313° |
| 2026-04-21 01:37 | 41.54204 | -93.66709 | 966 ft | 24 kts | 312° |
| 2026-04-21 01:37 | 41.54314 | -93.66869 | 965 ft | 23 kts | 311° |
| 2026-04-21 01:37 | 41.54419 | -93.67023 | 965 ft | 22 kts | 312° |
| 2026-04-21 01:37 | 41.54521 | -93.67169 | 965 ft | 22 kts | 313° |
| 2026-04-21 01:38 | 41.54605 | -93.67296 | 964 ft | 15 kts | 304° |
| 2026-04-21 01:38 | 41.54593 | -93.67391 | 964 ft | 8 kts | 226° |
| 2026-04-21 01:38 | 41.54552 | -93.67420 | 964 ft | 7 kts | 173° |
| 2026-04-21 01:38 | 41.54535 | -93.67403 | 965 ft | 0 kts | 129° |
| 2026-04-21 01:39 | 41.54521 | -93.67382 | 964 ft | 18 kts | 133° |
| 2026-04-21 01:39 | 41.54268 | -93.67016 | 964 ft | 89 kts | 131° |
| 2026-04-21 01:39 | 41.53702 | -93.66212 | 967 ft | 146 kts | 129° |
| 2026-04-21 01:39 | 41.52983 | -93.65078 | 1333 ft | 168 kts | 132° |
| 2026-04-21 01:40 | 41.52259 | -93.63797 | 2097 ft | 175 kts | 126° |
| 2026-04-21 01:40 | 41.51934 | -93.62193 | 2919 ft | 193 kts | 101° |
| 2026-04-21 01:40 | 41.51789 | -93.60212 | 3241 ft | 235 kts | 103° |
| 2026-04-21 01:40 | 41.51495 | -93.57925 | 3791 ft | 263 kts | 107° |
| 2026-04-21 01:41 | 41.51123 | -93.55495 | 4782 ft | 272 kts | 108° |
| 2026-04-21 01:41 | 41.50727 | -93.52948 | 5635 ft | 288 kts | 107° |
| 2026-04-21 01:41 | 41.50311 | -93.50244 | 6419 ft | 306 kts | 105° |
| 2026-04-21 01:41 | 41.49885 | -93.47412 | 7318 ft | 314 kts | 104° |
| 2026-04-21 01:42 | 41.49461 | -93.44544 | 8412 ft | 316 kts | 103° |
| 2026-04-21 01:42 | 41.49038 | -93.41654 | 9456 ft | 320 kts | 102° |
| 2026-04-21 01:42 | 41.48609 | -93.38713 | 10405 ft | 327 kts | 101° |
| 2026-04-21 01:42 | 41.48162 | -93.35636 | 10813 ft | 352 kts | 101° |
| 2026-04-21 01:43 | 41.47676 | -93.32296 | 11095 ft | 379 kts | 101° |
| 2026-04-21 01:43 | 41.47168 | -93.28811 | 11848 ft | 387 kts | 101° |
| 2026-04-21 01:43 | 41.46649 | -93.25265 | 12794 ft | 390 kts | 100° |
| 2026-04-21 01:43 | 41.46128 | -93.21708 | 13751 ft | 393 kts | 100° |
| 2026-04-21 01:44 | 41.45600 | -93.18107 | 14597 ft | 397 kts | 100° |
| 2026-04-21 01:44 | 41.45065 | -93.14471 | 15382 ft | 403 kts | 100° |
| 2026-04-21 01:44 | 41.44521 | -93.10781 | 16162 ft | 408 kts | 100° |
| 2026-04-21 01:44 | 41.43970 | -93.07054 | 16944 ft | 413 kts | 100° |
| 2026-04-21 01:45 | 41.43410 | -93.03275 | 17744 ft | 418 kts | 100° |
| 2026-04-21 01:45 | 41.42842 | -92.99450 | 18470 ft | 424 kts | 100° |
| 2026-04-21 01:45 | 41.42265 | -92.95571 | 19115 ft | 429 kts | 99° |
| 2026-04-21 01:45 | 41.41680 | -92.91654 | 19778 ft | 434 kts | 99° |
| 2026-04-21 01:46 | 41.41088 | -92.87695 | 20450 ft | 438 kts | 99° |
| 2026-04-21 01:46 | 41.40496 | -92.83744 | 21071 ft | 443 kts | 99° |
| 2026-04-21 01:46 | 41.39885 | -92.79681 | 21700 ft | 448 kts | 99° |
| 2026-04-21 01:46 | 41.39269 | -92.75595 | 22313 ft | 453 kts | 99° |
| 2026-04-21 01:47 | 41.38645 | -92.71462 | 22923 ft | 458 kts | 99° |
| 2026-04-21 01:47 | 41.38011 | -92.67281 | 23528 ft | 462 kts | 99° |
| 2026-04-21 01:47 | 41.37369 | -92.63054 | 24045 ft | 467 kts | 98° |
| 2026-04-21 01:47 | 41.36722 | -92.58805 | 24541 ft | 471 kts | 98° |
| 2026-04-21 01:48 | 41.36066 | -92.54509 | 25070 ft | 474 kts | 98° |
| 2026-04-21 01:48 | 41.35406 | -92.50197 | 25573 ft | 477 kts | 98° |
| 2026-04-21 01:48 | 41.34739 | -92.45856 | 26061 ft | 481 kts | 98° |
| 2026-04-21 01:48 | 41.34074 | -92.41535 | 26527 ft | 484 kts | 98° |
| 2026-04-21 01:49 | 41.33394 | -92.37128 | 26983 ft | 487 kts | 98° |
| 2026-04-21 01:49 | 41.32709 | -92.32700 | 27448 ft | 491 kts | 98° |
| 2026-04-21 01:49 | 41.32017 | -92.28241 | 27912 ft | 494 kts | 98° |
| 2026-04-21 01:49 | 41.31320 | -92.23750 | 28350 ft | 497 kts | 97° |
| 2026-04-21 01:50 | 41.30637 | -92.19217 | 28708 ft | 501 kts | 97° |
| 2026-04-21 01:50 | 41.29990 | -92.14646 | 29008 ft | 505 kts | 96° |
| 2026-04-21 01:50 | 41.29395 | -92.10052 | 29155 ft | 503 kts | 95° |
| 2026-04-21 01:50 | 41.28866 | -92.05441 | 28975 ft | 503 kts | 94° |
| 2026-04-21 01:51 | 41.28411 | -92.00831 | 28396 ft | 503 kts | 92° |
| 2026-04-21 01:51 | 41.28039 | -91.96215 | 27457 ft | 503 kts | 91° |
| 2026-04-21 01:51 | 41.27748 | -91.91566 | 26347 ft | 507 kts | 91° |
| 2026-04-21 01:51 | 41.27019 | -91.87009 | 26241 ft | 500 kts | 105° |
| 2026-04-21 01:52 | 41.25812 | -91.82669 | 26288 ft | 503 kts | 108° |
| 2026-04-21 01:52 | 41.23544 | -91.73720 | 26765 ft | 514 kts | 102° |
| 2026-04-21 01:52 | 41.22631 | -91.69139 | 27292 ft | 512 kts | 100° |
| 2026-04-21 01:53 | 41.21831 | -91.64559 | 27908 ft | 508 kts | 98° |
| 2026-04-21 01:53 | 41.21094 | -91.59978 | 28531 ft | 505 kts | 97° |
| 2026-04-21 01:53 | 41.20394 | -91.55491 | 29110 ft | 501 kts | 97° |
| 2026-04-21 01:54 | 41.18961 | -91.46342 | 29156 ft | 508 kts | 97° |
| 2026-04-21 01:54 | 41.17489 | -91.37246 | 29152 ft | 502 kts | 97° |
| 2026-04-21 01:55 | 41.15997 | -91.28175 | 29185 ft | 504 kts | 98° |
| 2026-04-21 01:55 | 41.14492 | -91.19083 | 29179 ft | 505 kts | 98° |
| 2026-04-21 01:56 | 41.12977 | -91.09964 | 29182 ft | 507 kts | 97° |
| 2026-04-21 01:56 | 41.11454 | -91.00847 | 29169 ft | 505 kts | 98° |
| 2026-04-21 01:57 | 41.09929 | -90.91764 | 29180 ft | 504 kts | 98° |
| 2026-04-21 01:57 | 41.09166 | -90.87227 | 28565 ft | 508 kts | 98° |
| 2026-04-21 01:57 | 41.08394 | -90.82651 | 27654 ft | 508 kts | 98° |
| 2026-04-21 01:57 | 41.07622 | -90.78089 | 26759 ft | 505 kts | 98° |
| 2026-04-21 01:58 | 41.07114 | -90.75104 | 26359 ft | 499 kts | 98° |
| 2026-04-21 01:58 | 41.06467 | -90.70624 | 25604 ft | 489 kts | 89° |
| 2026-04-21 01:58 | 41.06601 | -90.66214 | 24889 ft | 473 kts | 76° |
| 2026-04-21 01:58 | 41.07027 | -90.61923 | 24159 ft | 469 kts | 76° |
| 2026-04-21 01:59 | 41.07443 | -90.57653 | 23376 ft | 465 kts | 77° |
| 2026-04-21 01:59 | 41.07820 | -90.53416 | 22578 ft | 461 kts | 77° |
| 2026-04-21 01:59 | 41.08163 | -90.49214 | 21862 ft | 456 kts | 78° |
| 2026-04-21 01:59 | 41.08491 | -90.45056 | 21163 ft | 450 kts | 78° |
| 2026-04-21 02:00 | 41.08807 | -90.41003 | 21005 ft | 434 kts | 78° |
| 2026-04-21 02:00 | 41.09117 | -90.37045 | 20811 ft | 432 kts | 78° |
| 2026-04-21 02:00 | 41.09440 | -90.33035 | 20624 ft | 441 kts | 78° |
| 2026-04-21 02:00 | 41.09765 | -90.28978 | 20411 ft | 443 kts | 78° |
| 2026-04-21 02:01 | 41.10084 | -90.24926 | 20200 ft | 440 kts | 78° |
| 2026-04-21 02:01 | 41.10398 | -90.20904 | 19998 ft | 438 kts | 78° |
| 2026-04-21 02:01 | 41.10709 | -90.16891 | 19798 ft | 436 kts | 78° |
| 2026-04-21 02:01 | 41.11019 | -90.12900 | 19606 ft | 434 kts | 78° |
| 2026-04-21 02:02 | 41.11327 | -90.08926 | 19412 ft | 433 kts | 78° |
| 2026-04-21 02:02 | 41.11632 | -90.04957 | 19217 ft | 432 kts | 78° |
| 2026-04-21 02:02 | 41.11922 | -90.00981 | 18911 ft | 434 kts | 79° |
| 2026-04-21 02:02 | 41.12197 | -89.96989 | 18625 ft | 435 kts | 79° |
| 2026-04-21 02:03 | 41.12464 | -89.93002 | 18261 ft | 431 kts | 79° |
| 2026-04-21 02:03 | 41.12725 | -89.89071 | 17921 ft | 425 kts | 79° |
| 2026-04-21 02:03 | 41.12985 | -89.85187 | 17610 ft | 422 kts | 79° |
| 2026-04-21 02:03 | 41.13249 | -89.81304 | 17320 ft | 423 kts | 79° |
| 2026-04-21 02:04 | 41.13512 | -89.77417 | 17017 ft | 422 kts | 79° |
| 2026-04-21 02:04 | 41.13772 | -89.73536 | 16697 ft | 422 kts | 79° |
| 2026-04-21 02:04 | 41.14030 | -89.69644 | 16239 ft | 423 kts | 80° |
| 2026-04-21 02:04 | 41.14279 | -89.65781 | 15922 ft | 417 kts | 80° |
| 2026-04-21 02:05 | 41.14522 | -89.61970 | 15609 ft | 412 kts | 80° |
| 2026-04-21 02:05 | 41.14763 | -89.58187 | 15309 ft | 411 kts | 80° |
| 2026-04-21 02:05 | 41.15005 | -89.54409 | 15019 ft | 411 kts | 81° |
| 2026-04-21 02:05 | 41.15245 | -89.50636 | 14727 ft | 410 kts | 81° |
| 2026-04-21 02:06 | 41.15485 | -89.46862 | 14446 ft | 410 kts | 81° |
| 2026-04-21 02:06 | 41.15721 | -89.43102 | 14139 ft | 409 kts | 81° |
| 2026-04-21 02:06 | 41.15960 | -89.39335 | 13796 ft | 409 kts | 81° |
| 2026-04-21 02:06 | 41.16207 | -89.35581 | 13445 ft | 408 kts | 81° |
| 2026-04-21 02:07 | 41.16455 | -89.31845 | 13102 ft | 406 kts | 81° |
| 2026-04-21 02:07 | 41.16701 | -89.28120 | 12775 ft | 404 kts | 81° |
| 2026-04-21 02:07 | 41.16944 | -89.24419 | 12448 ft | 401 kts | 82° |
| 2026-04-21 02:07 | 41.17184 | -89.20739 | 12138 ft | 399 kts | 82° |
| 2026-04-21 02:08 | 41.17421 | -89.17085 | 11817 ft | 397 kts | 82° |
| 2026-04-21 02:08 | 41.17657 | -89.13432 | 11501 ft | 395 kts | 81° |
| 2026-04-21 02:08 | 41.18141 | -89.09882 | 11180 ft | 387 kts | 70° |
| 2026-04-21 02:08 | 41.18932 | -89.06581 | 10880 ft | 372 kts | 67° |
| 2026-04-21 02:09 | 41.19744 | -89.03377 | 10604 ft | 361 kts | 68° |
| 2026-04-21 02:09 | 41.20496 | -89.00247 | 10356 ft | 350 kts | 69° |
| 2026-04-21 02:09 | 41.21202 | -88.97194 | 10055 ft | 341 kts | 69° |
| 2026-04-21 02:09 | 41.22019 | -88.94360 | 9973 ft | 315 kts | 60° |
| 2026-04-21 02:10 | 41.22934 | -88.91829 | 9784 ft | 298 kts | 58° |
| 2026-04-21 02:10 | 41.23855 | -88.89378 | 9574 ft | 294 kts | 58° |
| 2026-04-21 02:10 | 41.24754 | -88.86937 | 9390 ft | 294 kts | 59° |
| 2026-04-21 02:10 | 41.25636 | -88.84484 | 9225 ft | 295 kts | 60° |
| 2026-04-21 02:11 | 41.26513 | -88.82011 | 9061 ft | 296 kts | 60° |
| 2026-04-21 02:11 | 41.27385 | -88.79534 | 8899 ft | 296 kts | 60° |
| 2026-04-21 02:11 | 41.28258 | -88.77054 | 8737 ft | 296 kts | 60° |
| 2026-04-21 02:11 | 41.29128 | -88.74575 | 8570 ft | 295 kts | 60° |
| 2026-04-21 02:12 | 41.29995 | -88.72105 | 8406 ft | 295 kts | 60° |
| 2026-04-21 02:12 | 41.30861 | -88.69634 | 8250 ft | 294 kts | 60° |
| 2026-04-21 02:12 | 41.31722 | -88.67177 | 8087 ft | 293 kts | 60° |
| 2026-04-21 02:12 | 41.32580 | -88.64724 | 7924 ft | 292 kts | 61° |
| 2026-04-21 02:13 | 41.33434 | -88.62282 | 7778 ft | 290 kts | 61° |
| 2026-04-21 02:13 | 41.34283 | -88.59852 | 7626 ft | 289 kts | 61° |
| 2026-04-21 02:13 | 41.35128 | -88.57434 | 7468 ft | 287 kts | 61° |
| 2026-04-21 02:13 | 41.35969 | -88.55024 | 7311 ft | 286 kts | 61° |
| 2026-04-21 02:14 | 41.36794 | -88.52656 | 7150 ft | 285 kts | 61° |
| 2026-04-21 02:14 | 41.37681 | -88.50318 | 7015 ft | 279 kts | 52° |
| 2026-04-21 02:14 | 41.38829 | -88.48281 | 6928 ft | 272 kts | 46° |
| 2026-04-21 02:14 | 41.40037 | -88.46359 | 6845 ft | 268 kts | 44° |
| 2026-04-21 02:15 | 41.41236 | -88.44470 | 6754 ft | 266 kts | 44° |
| 2026-04-21 02:15 | 41.42421 | -88.42580 | 6669 ft | 267 kts | 45° |
| 2026-04-21 02:15 | 41.43610 | -88.40665 | 6586 ft | 270 kts | 45° |
| 2026-04-21 02:15 | 41.44808 | -88.38717 | 6489 ft | 273 kts | 46° |
| 2026-04-21 02:16 | 41.46003 | -88.36760 | 6396 ft | 272 kts | 46° |
| 2026-04-21 02:16 | 41.47198 | -88.34795 | 6300 ft | 272 kts | 46° |
| 2026-04-21 02:16 | 41.48386 | -88.32835 | 6204 ft | 272 kts | 47° |
| 2026-04-21 02:16 | 41.49571 | -88.30879 | 6060 ft | 270 kts | 47° |
| 2026-04-21 02:17 | 41.50749 | -88.28926 | 6027 ft | 270 kts | 49° |
| 2026-04-21 02:17 | 41.51796 | -88.26843 | 6018 ft | 271 kts | 55° |
| 2026-04-21 02:17 | 41.52771 | -88.24685 | 6015 ft | 272 kts | 56° |
| 2026-04-21 02:17 | 41.53741 | -88.22520 | 6018 ft | 272 kts | 56° |
| 2026-04-21 02:18 | 41.54722 | -88.20359 | 6021 ft | 272 kts | 55° |
| 2026-04-21 02:18 | 41.55711 | -88.18207 | 6032 ft | 272 kts | 55° |
| 2026-04-21 02:18 | 41.56703 | -88.16057 | 6011 ft | 272 kts | 55° |
| 2026-04-21 02:18 | 41.57698 | -88.13903 | 6019 ft | 272 kts | 55° |
| 2026-04-21 02:19 | 41.58691 | -88.11753 | 6030 ft | 272 kts | 55° |
| 2026-04-21 02:19 | 41.59683 | -88.09608 | 6026 ft | 272 kts | 55° |
| 2026-04-21 02:19 | 41.60675 | -88.07458 | 6026 ft | 272 kts | 54° |
| 2026-04-21 02:19 | 41.61665 | -88.05313 | 6023 ft | 270 kts | 54° |
| 2026-04-21 02:20 | 41.62644 | -88.03189 | 5836 ft | 266 kts | 55° |
| 2026-04-21 02:20 | 41.63613 | -88.01087 | 5471 ft | 266 kts | 56° |
| 2026-04-21 02:20 | 41.64582 | -87.98981 | 5134 ft | 266 kts | 57° |
| 2026-04-21 02:20 | 41.65549 | -87.96880 | 4793 ft | 264 kts | 58° |
| 2026-04-21 02:21 | 41.66320 | -87.95203 | 4522 ft | 263 kts | 58° |
| 2026-04-21 02:21 | 41.67257 | -87.93159 | 4425 ft | 252 kts | 59° |
| 2026-04-21 02:21 | 41.68156 | -87.91201 | 4337 ft | 242 kts | 59° |
| 2026-04-21 02:21 | 41.69009 | -87.89339 | 4272 ft | 227 kts | 59° |
| 2026-04-21 02:22 | 41.69809 | -87.87592 | 4161 ft | 213 kts | 60° |
| 2026-04-21 02:22 | 41.70556 | -87.85960 | 4048 ft | 198 kts | 60° |
| 2026-04-21 02:22 | 41.71231 | -87.84486 | 4003 ft | 183 kts | 60° |
| 2026-04-21 02:22 | 41.71903 | -87.83017 | 4013 ft | 179 kts | 60° |
| 2026-04-21 02:23 | 41.72556 | -87.81585 | 4033 ft | 181 kts | 60° |
| 2026-04-21 02:23 | 41.73212 | -87.80149 | 4023 ft | 181 kts | 60° |
| 2026-04-21 02:23 | 41.73869 | -87.78708 | 4027 ft | 181 kts | 60° |
| 2026-04-21 02:23 | 41.74546 | -87.77223 | 4065 ft | 195 kts | 60° |
| 2026-04-21 02:24 | 41.75256 | -87.75640 | 4036 ft | 199 kts | 65° |
| 2026-04-21 02:24 | 41.75537 | -87.73899 | 4048 ft | 194 kts | 90° |
| 2026-04-21 02:24 | 41.75612 | -87.72071 | 4043 ft | 199 kts | 90° |
| 2026-04-21 02:24 | 41.75693 | -87.70208 | 4037 ft | 202 kts | 90° |
| 2026-04-21 02:25 | 41.75780 | -87.68341 | 3991 ft | 201 kts | 88° |
| 2026-04-21 02:25 | 41.76113 | -87.66510 | 3720 ft | 203 kts | 69° |
| 2026-04-21 02:25 | 41.76865 | -87.64947 | 3484 ft | 198 kts | 49° |
| 2026-04-21 02:25 | 41.77915 | -87.63851 | 3268 ft | 185 kts | 29° |
| 2026-04-21 02:26 | 41.79115 | -87.63252 | 3066 ft | 185 kts | 12° |
| 2026-04-21 02:26 | 41.80406 | -87.63106 | 2842 ft | 189 kts | 356° |
| 2026-04-21 02:26 | 41.81665 | -87.63469 | 2637 ft | 183 kts | 332° |
| 2026-04-21 02:26 | 41.82603 | -87.64492 | 2388 ft | 162 kts | 297° |
| 2026-04-21 02:27 | 41.83015 | -87.65745 | 2285 ft | 141 kts | 283° |
| 2026-04-21 02:27 | 41.83202 | -87.66991 | 2148 ft | 132 kts | 261° |
| 2026-04-21 02:27 | 41.83026 | -87.68182 | 1982 ft | 130 kts | 249° |
| 2026-04-21 02:27 | 41.82737 | -87.69351 | 1776 ft | 132 kts | 241° |
| 2026-04-21 02:28 | 41.82266 | -87.70411 | 1581 ft | 134 kts | 230° |
| 2026-04-21 02:28 | 41.81630 | -87.71324 | 1359 ft | 133 kts | 217° |
| 2026-04-21 02:28 | 41.80955 | -87.72129 | 1166 ft | 128 kts | 218° |
| 2026-04-21 02:28 | 41.80302 | -87.72923 | 1006 ft | 126 kts | 220° |
| 2026-04-21 02:29 | 41.79663 | -87.73721 | 826 ft | 128 kts | 220° |
| 2026-04-21 02:29 | 41.79020 | -87.74539 | 658 ft | 127 kts | 220° |
| 2026-04-21 02:29 | 41.78447 | -87.75263 | 633 ft | 86 kts | 224° |
| 2026-04-21 02:29 | 41.78169 | -87.75615 | 637 ft | 26 kts | 222° |
| 2026-04-21 02:30 | 41.78124 | -87.75672 | 629 ft | 13 kts | 224° |
| 2026-04-21 02:30 | 41.78048 | -87.75736 | 628 ft | 12 kts | 176° |
| 2026-04-21 02:30 | 41.77989 | -87.75676 | 628 ft | 6 kts | 111° |
| 2026-04-21 02:30 | 41.78000 | -87.75628 | 631 ft | 6 kts | 60° |
| 2026-04-21 02:31 | 41.78052 | -87.75560 | 629 ft | 16 kts | 43° |
| 2026-04-21 02:31 | 41.78156 | -87.75427 | 628 ft | 26 kts | 44° |
| 2026-04-21 02:31 | 41.78291 | -87.75255 | 631 ft | 27 kts | 44° |
| 2026-04-21 02:31 | 41.78420 | -87.75090 | 635 ft | 25 kts | 42° |
| 2026-04-21 02:32 | 41.78541 | -87.74938 | 632 ft | 23 kts | 42° |
| 2026-04-21 02:32 | 41.78640 | -87.74813 | 631 ft | 14 kts | 41° |
| 2026-04-21 02:32 | 41.78702 | -87.74750 | 634 ft | 11 kts | 45° |
| 2026-04-21 02:32 | 41.78755 | -87.74676 | 630 ft | 11 kts | 44° |
| 2026-04-21 02:33 | 41.78800 | -87.74616 | 630 ft | 5 kts | 58° |
| 2026-04-21 02:33 | 41.78781 | -87.74574 | 632 ft | 6 kts | 129° |
| 2026-04-21 02:33 | 41.78767 | -87.74541 | 628 ft | 1 kts | 115° |
| 2026-04-21 02:33 | 41.78765 | -87.74535 | 628 ft | 1 kts | 114° |
| 2026-04-21 02:34 | 41.78765 | -87.74534 | 628 ft | 0 kts | 114° |